sensor_id;sensor_type;location;lat;lon;timestamp;P1;durP1;ratioP1;P2;durP2;ratioP2
4424;SDS011;2225;53.568;13.266;2023-07-28T00:02:01;17.10;;;6.07;;
4424;SDS011;2225;53.568;13.266;2023-07-28T00:04:28;13.17;;;5.30;;
4424;SDS011;2225;53.568;13.266;2023-07-28T00:06:55;11.10;;;6.37;;
4424;SDS011;2225;53.568;13.266;2023-07-28T00:09:22;10.23;;;5.70;;
4424;SDS011;2225;53.568;13.266;2023-07-28T00:11:49;10.60;;;5.90;;
4424;SDS011;2225;53.568;13.266;2023-07-28T00:14:16;12.77;;;7.23;;
4424;SDS011;2225;53.568;13.266;2023-07-28T00:16:43;14.27;;;6.63;;
4424;SDS011;2225;53.568;13.266;2023-07-28T00:19:10;11.60;;;6.70;;
4424;SDS011;2225;53.568;13.266;2023-07-28T00:21:37;14.20;;;6.53;;
4424;SDS011;2225;53.568;13.266;2023-07-28T00:24:04;11.37;;;5.90;;
4424;SDS011;2225;53.568;13.266;2023-07-28T00:26:31;14.90;;;7.80;;
4424;SDS011;2225;53.568;13.266;2023-07-28T00:28:59;12.27;;;7.13;;
4424;SDS011;2225;53.568;13.266;2023-07-28T00:31:26;12.93;;;7.50;;
4424;SDS011;2225;53.568;13.266;2023-07-28T00:33:53;12.47;;;7.23;;
4424;SDS011;2225;53.568;13.266;2023-07-28T00:36:20;12.60;;;6.70;;
4424;SDS011;2225;53.568;13.266;2023-07-28T00:38:47;12.73;;;7.80;;
4424;SDS011;2225;53.568;13.266;2023-07-28T00:41:15;11.20;;;6.73;;
4424;SDS011;2225;53.568;13.266;2023-07-28T00:43:42;10.07;;;5.97;;
4424;SDS011;2225;53.568;13.266;2023-07-28T00:46:12;19.13;;;7.30;;
4424;SDS011;2225;53.568;13.266;2023-07-28T00:48:40;17.40;;;8.40;;
4424;SDS011;2225;53.568;13.266;2023-07-28T00:51:07;12.23;;;7.47;;
4424;SDS011;2225;53.568;13.266;2023-07-28T00:53:35;17.40;;;7.40;;
4424;SDS011;2225;53.568;13.266;2023-07-28T00:56:03;12.20;;;5.60;;
4424;SDS011;2225;53.568;13.266;2023-07-28T00:58:31;10.70;;;6.30;;
4424;SDS011;2225;53.568;13.266;2023-07-28T01:00:59;11.63;;;6.03;;
4424;SDS011;2225;53.568;13.266;2023-07-28T01:03:26;11.70;;;6.50;;
4424;SDS011;2225;53.568;13.266;2023-07-28T01:09:03;11.67;;;6.10;;
4424;SDS011;2225;53.568;13.266;2023-07-28T01:11:52;10.80;;;6.40;;
4424;SDS011;2225;53.568;13.266;2023-07-28T01:14:20;12.27;;;7.10;;
4424;SDS011;2225;53.568;13.266;2023-07-28T01:16:47;15.13;;;6.93;;
4424;SDS011;2225;53.568;13.266;2023-07-28T01:19:16;12.47;;;6.77;;
4424;SDS011;2225;53.568;13.266;2023-07-28T01:21:45;14.63;;;7.10;;
4424;SDS011;2225;53.568;13.266;2023-07-28T01:24:29;16.00;;;6.70;;
4424;SDS011;2225;53.568;13.266;2023-07-28T01:27:10;18.63;;;6.93;;
4424;SDS011;2225;53.568;13.266;2023-07-28T01:29:37;11.43;;;6.60;;
4424;SDS011;2225;53.568;13.266;2023-07-28T01:32:05;15.60;;;7.27;;
4424;SDS011;2225;53.568;13.266;2023-07-28T01:34:32;11.40;;;6.90;;
4424;SDS011;2225;53.568;13.266;2023-07-28T01:36:59;20.53;;;8.20;;
4424;SDS011;2225;53.568;13.266;2023-07-28T01:39:26;13.93;;;7.40;;
4424;SDS011;2225;53.568;13.266;2023-07-28T01:41:53;14.47;;;7.50;;
4424;SDS011;2225;53.568;13.266;2023-07-28T01:44:20;13.13;;;7.40;;
4424;SDS011;2225;53.568;13.266;2023-07-28T01:46:47;12.13;;;7.50;;
4424;SDS011;2225;53.568;13.266;2023-07-28T01:49:14;14.30;;;7.87;;
4424;SDS011;2225;53.568;13.266;2023-07-28T01:51:41;13.90;;;6.67;;
4424;SDS011;2225;53.568;13.266;2023-07-28T01:54:08;16.00;;;8.30;;
4424;SDS011;2225;53.568;13.266;2023-07-28T01:56:35;15.27;;;8.57;;
4424;SDS011;2225;53.568;13.266;2023-07-28T01:59:03;12.17;;;6.83;;
4424;SDS011;2225;53.568;13.266;2023-07-28T02:01:31;17.83;;;6.80;;
4424;SDS011;2225;53.568;13.266;2023-07-28T02:03:58;17.03;;;7.40;;
4424;SDS011;2225;53.568;13.266;2023-07-28T02:06:25;14.60;;;7.67;;
4424;SDS011;2225;53.568;13.266;2023-07-28T02:08:56;13.00;;;7.50;;
4424;SDS011;2225;53.568;13.266;2023-07-28T02:11:23;16.40;;;8.00;;
4424;SDS011;2225;53.568;13.266;2023-07-28T02:13:50;13.07;;;7.20;;
4424;SDS011;2225;53.568;13.266;2023-07-28T02:16:17;14.23;;;8.13;;
4424;SDS011;2225;53.568;13.266;2023-07-28T02:18:44;12.67;;;7.47;;
4424;SDS011;2225;53.568;13.266;2023-07-28T02:21:11;12.67;;;6.63;;
4424;SDS011;2225;53.568;13.266;2023-07-28T02:23:38;15.00;;;7.60;;
4424;SDS011;2225;53.568;13.266;2023-07-28T02:26:05;14.00;;;7.10;;
4424;SDS011;2225;53.568;13.266;2023-07-28T02:28:32;19.47;;;8.70;;
4424;SDS011;2225;53.568;13.266;2023-07-28T02:30:59;13.90;;;8.40;;
4424;SDS011;2225;53.568;13.266;2023-07-28T02:33:26;17.53;;;8.40;;
4424;SDS011;2225;53.568;13.266;2023-07-28T02:35:56;14.67;;;7.27;;
4424;SDS011;2225;53.568;13.266;2023-07-28T02:38:23;14.30;;;7.60;;
4424;SDS011;2225;53.568;13.266;2023-07-28T02:40:50;12.43;;;7.60;;
4424;SDS011;2225;53.568;13.266;2023-07-28T02:43:17;15.20;;;7.60;;
4424;SDS011;2225;53.568;13.266;2023-07-28T02:45:47;12.13;;;7.20;;
4424;SDS011;2225;53.568;13.266;2023-07-28T02:48:21;16.00;;;7.43;;
4424;SDS011;2225;53.568;13.266;2023-07-28T02:50:50;15.30;;;7.87;;
4424;SDS011;2225;53.568;13.266;2023-07-28T02:53:17;12.20;;;7.20;;
4424;SDS011;2225;53.568;13.266;2023-07-28T02:55:46;14.67;;;7.50;;
4424;SDS011;2225;53.568;13.266;2023-07-28T02:58:14;19.13;;;8.30;;
4424;SDS011;2225;53.568;13.266;2023-07-28T03:00:41;11.70;;;7.13;;
4424;SDS011;2225;53.568;13.266;2023-07-28T03:03:13;16.33;;;7.10;;
4424;SDS011;2225;53.568;13.266;2023-07-28T03:05:40;16.83;;;8.10;;
4424;SDS011;2225;53.568;13.266;2023-07-28T03:08:16;14.67;;;7.27;;
4424;SDS011;2225;53.568;13.266;2023-07-28T03:10:43;13.83;;;7.93;;
4424;SDS011;2225;53.568;13.266;2023-07-28T03:13:10;12.73;;;6.80;;
4424;SDS011;2225;53.568;13.266;2023-07-28T03:15:37;18.33;;;7.60;;
4424;SDS011;2225;53.568;13.266;2023-07-28T03:18:05;19.57;;;7.27;;
4424;SDS011;2225;53.568;13.266;2023-07-28T03:20:32;18.13;;;7.50;;
4424;SDS011;2225;53.568;13.266;2023-07-28T03:22:58;19.73;;;8.10;;
4424;SDS011;2225;53.568;13.266;2023-07-28T03:25:26;13.20;;;7.67;;
4424;SDS011;2225;53.568;13.266;2023-07-28T03:27:53;15.00;;;7.40;;
4424;SDS011;2225;53.568;13.266;2023-07-28T03:30:20;14.10;;;7.53;;
4424;SDS011;2225;53.568;13.266;2023-07-28T03:32:47;14.20;;;7.87;;
4424;SDS011;2225;53.568;13.266;2023-07-28T03:35:14;14.13;;;7.20;;
4424;SDS011;2225;53.568;13.266;2023-07-28T03:37:48;17.77;;;7.30;;
4424;SDS011;2225;53.568;13.266;2023-07-28T03:40:15;19.23;;;7.33;;
4424;SDS011;2225;53.568;13.266;2023-07-28T03:42:48;15.00;;;7.80;;
4424;SDS011;2225;53.568;13.266;2023-07-28T03:45:15;19.60;;;7.23;;
4424;SDS011;2225;53.568;13.266;2023-07-28T03:47:42;13.67;;;7.77;;
4424;SDS011;2225;53.568;13.266;2023-07-28T03:50:09;13.73;;;8.27;;
4424;SDS011;2225;53.568;13.266;2023-07-28T03:52:36;13.00;;;8.27;;
4424;SDS011;2225;53.568;13.266;2023-07-28T03:55:03;15.03;;;7.30;;
4424;SDS011;2225;53.568;13.266;2023-07-28T03:57:30;17.17;;;8.00;;
4424;SDS011;2225;53.568;13.266;2023-07-28T03:59:57;18.53;;;7.60;;
4424;SDS011;2225;53.568;13.266;2023-07-28T04:02:24;15.80;;;8.83;;
4424;SDS011;2225;53.568;13.266;2023-07-28T04:04:54;20.03;;;8.30;;
4424;SDS011;2225;53.568;13.266;2023-07-28T04:07:22;14.10;;;7.50;;
4424;SDS011;2225;53.568;13.266;2023-07-28T04:09:49;14.10;;;7.43;;
4424;SDS011;2225;53.568;13.266;2023-07-28T04:12:16;19.10;;;8.60;;
4424;SDS011;2225;53.568;13.266;2023-07-28T04:14:43;15.90;;;8.87;;
4424;SDS011;2225;53.568;13.266;2023-07-28T04:17:10;19.40;;;8.60;;
4424;SDS011;2225;53.568;13.266;2023-07-28T04:19:38;12.90;;;7.77;;
4424;SDS011;2225;53.568;13.266;2023-07-28T04:22:05;13.93;;;8.20;;
4424;SDS011;2225;53.568;13.266;2023-07-28T04:24:34;12.97;;;7.90;;
4424;SDS011;2225;53.568;13.266;2023-07-28T04:27:01;17.13;;;7.87;;
4424;SDS011;2225;53.568;13.266;2023-07-28T04:29:28;22.13;;;7.30;;
4424;SDS011;2225;53.568;13.266;2023-07-28T04:31:55;16.13;;;7.53;;
4424;SDS011;2225;53.568;13.266;2023-07-28T04:34:28;15.07;;;7.07;;
4424;SDS011;2225;53.568;13.266;2023-07-28T04:37:11;15.60;;;7.47;;
4424;SDS011;2225;53.568;13.266;2023-07-28T04:39:53;15.77;;;7.50;;
4424;SDS011;2225;53.568;13.266;2023-07-28T04:42:20;16.90;;;8.13;;
4424;SDS011;2225;53.568;13.266;2023-07-28T04:44:47;21.43;;;8.13;;
4424;SDS011;2225;53.568;13.266;2023-07-28T04:47:16;14.53;;;7.40;;
4424;SDS011;2225;53.568;13.266;2023-07-28T04:49:43;13.63;;;7.03;;
4424;SDS011;2225;53.568;13.266;2023-07-28T04:52:10;23.60;;;8.17;;
4424;SDS011;2225;53.568;13.266;2023-07-28T04:54:46;23.20;;;8.23;;
4424;SDS011;2225;53.568;13.266;2023-07-28T04:57:13;14.87;;;8.30;;
4424;SDS011;2225;53.568;13.266;2023-07-28T04:59:42;14.80;;;7.70;;
4424;SDS011;2225;53.568;13.266;2023-07-28T05:02:09;18.20;;;8.00;;
4424;SDS011;2225;53.568;13.266;2023-07-28T05:04:36;19.30;;;9.30;;
4424;SDS011;2225;53.568;13.266;2023-07-28T05:07:04;15.27;;;8.13;;
4424;SDS011;2225;53.568;13.266;2023-07-28T05:09:31;26.10;;;9.93;;
4424;SDS011;2225;53.568;13.266;2023-07-28T05:11:58;22.10;;;8.80;;
4424;SDS011;2225;53.568;13.266;2023-07-28T05:14:25;20.13;;;8.67;;
4424;SDS011;2225;53.568;13.266;2023-07-28T05:16:52;20.00;;;7.87;;
4424;SDS011;2225;53.568;13.266;2023-07-28T05:19:32;16.57;;;8.57;;
4424;SDS011;2225;53.568;13.266;2023-07-28T05:22:18;21.80;;;9.23;;
4424;SDS011;2225;53.568;13.266;2023-07-28T05:24:51;18.83;;;8.50;;
4424;SDS011;2225;53.568;13.266;2023-07-28T05:27:23;25.43;;;8.50;;
4424;SDS011;2225;53.568;13.266;2023-07-28T05:29:50;24.90;;;9.40;;
4424;SDS011;2225;53.568;13.266;2023-07-28T05:32:17;21.40;;;8.13;;
4424;SDS011;2225;53.568;13.266;2023-07-28T05:35:07;16.20;;;8.07;;
4424;SDS011;2225;53.568;13.266;2023-07-28T05:37:34;20.90;;;9.27;;
4424;SDS011;2225;53.568;13.266;2023-07-28T05:40:01;16.10;;;9.10;;
4424;SDS011;2225;53.568;13.266;2023-07-28T05:42:31;18.60;;;9.40;;
4424;SDS011;2225;53.568;13.266;2023-07-28T05:44:58;19.77;;;9.77;;
4424;SDS011;2225;53.568;13.266;2023-07-28T05:47:26;30.57;;;9.83;;
4424;SDS011;2225;53.568;13.266;2023-07-28T05:49:53;17.53;;;9.50;;
4424;SDS011;2225;53.568;13.266;2023-07-28T05:52:21;14.63;;;9.23;;
4424;SDS011;2225;53.568;13.266;2023-07-28T05:54:49;21.00;;;9.83;;
4424;SDS011;2225;53.568;13.266;2023-07-28T05:57:16;13.93;;;8.00;;
4424;SDS011;2225;53.568;13.266;2023-07-28T05:59:43;13.37;;;7.77;;
4424;SDS011;2225;53.568;13.266;2023-07-28T06:02:10;15.23;;;7.50;;
4424;SDS011;2225;53.568;13.266;2023-07-28T06:04:52;17.80;;;8.47;;
4424;SDS011;2225;53.568;13.266;2023-07-28T06:07:19;14.50;;;7.93;;
4424;SDS011;2225;53.568;13.266;2023-07-28T06:09:46;13.90;;;7.43;;
4424;SDS011;2225;53.568;13.266;2023-07-28T06:12:14;12.47;;;6.73;;
4424;SDS011;2225;53.568;13.266;2023-07-28T06:14:42;10.87;;;6.13;;
4424;SDS011;2225;53.568;13.266;2023-07-28T06:17:10;11.80;;;6.00;;
4424;SDS011;2225;53.568;13.266;2023-07-28T06:19:37;13.60;;;5.30;;
4424;SDS011;2225;53.568;13.266;2023-07-28T06:22:04;11.90;;;5.97;;
4424;SDS011;2225;53.568;13.266;2023-07-28T06:24:36;12.80;;;6.50;;
4424;SDS011;2225;53.568;13.266;2023-07-28T06:27:03;10.40;;;6.07;;
4424;SDS011;2225;53.568;13.266;2023-07-28T06:29:36;8.70;;;4.40;;
4424;SDS011;2225;53.568;13.266;2023-07-28T06:32:03;13.73;;;6.27;;
4424;SDS011;2225;53.568;13.266;2023-07-28T06:34:31;12.13;;;5.63;;
4424;SDS011;2225;53.568;13.266;2023-07-28T06:36:57;8.33;;;4.30;;
4424;SDS011;2225;53.568;13.266;2023-07-28T06:39:24;7.90;;;3.83;;
4424;SDS011;2225;53.568;13.266;2023-07-28T06:41:51;11.73;;;4.40;;
4424;SDS011;2225;53.568;13.266;2023-07-28T06:44:20;9.43;;;4.17;;
4424;SDS011;2225;53.568;13.266;2023-07-28T06:46:47;7.10;;;3.13;;
4424;SDS011;2225;53.568;13.266;2023-07-28T06:49:14;9.13;;;3.47;;
4424;SDS011;2225;53.568;13.266;2023-07-28T06:51:42;7.30;;;3.57;;
4424;SDS011;2225;53.568;13.266;2023-07-28T06:54:10;9.20;;;3.23;;
4424;SDS011;2225;53.568;13.266;2023-07-28T06:56:39;6.60;;;2.80;;
4424;SDS011;2225;53.568;13.266;2023-07-28T06:59:07;7.30;;;2.73;;
4424;SDS011;2225;53.568;13.266;2023-07-28T07:01:43;8.63;;;3.03;;
4424;SDS011;2225;53.568;13.266;2023-07-28T07:04:11;7.10;;;3.00;;
4424;SDS011;2225;53.568;13.266;2023-07-28T07:06:38;11.57;;;3.20;;
4424;SDS011;2225;53.568;13.266;2023-07-28T07:09:05;7.67;;;3.10;;
4424;SDS011;2225;53.568;13.266;2023-07-28T07:11:32;7.40;;;2.90;;
4424;SDS011;2225;53.568;13.266;2023-07-28T07:14:00;7.30;;;2.97;;
4424;SDS011;2225;53.568;13.266;2023-07-28T07:16:27;8.60;;;2.93;;
4424;SDS011;2225;53.568;13.266;2023-07-28T07:18:54;6.30;;;2.40;;
4424;SDS011;2225;53.568;13.266;2023-07-28T07:21:21;9.00;;;2.40;;
4424;SDS011;2225;53.568;13.266;2023-07-28T07:23:48;6.57;;;2.70;;
4424;SDS011;2225;53.568;13.266;2023-07-28T07:26:24;7.67;;;3.00;;
4424;SDS011;2225;53.568;13.266;2023-07-28T07:28:51;6.30;;;2.50;;
4424;SDS011;2225;53.568;13.266;2023-07-28T07:31:19;6.33;;;2.23;;
4424;SDS011;2225;53.568;13.266;2023-07-28T07:33:46;7.30;;;2.37;;
4424;SDS011;2225;53.568;13.266;2023-07-28T07:36:13;7.43;;;2.87;;
4424;SDS011;2225;53.568;13.266;2023-07-28T07:38:44;6.93;;;2.80;;
4424;SDS011;2225;53.568;13.266;2023-07-28T07:41:13;19.93;;;2.90;;
4424;SDS011;2225;53.568;13.266;2023-07-28T07:43:46;6.67;;;2.50;;
4424;SDS011;2225;53.568;13.266;2023-07-28T07:46:14;6.97;;;2.57;;
4424;SDS011;2225;53.568;13.266;2023-07-28T07:48:42;7.07;;;2.87;;
4424;SDS011;2225;53.568;13.266;2023-07-28T07:51:09;7.40;;;2.40;;
4424;SDS011;2225;53.568;13.266;2023-07-28T07:53:37;5.90;;;2.30;;
4424;SDS011;2225;53.568;13.266;2023-07-28T07:56:04;6.37;;;2.13;;
4424;SDS011;2225;53.568;13.266;2023-07-28T07:58:32;5.80;;;1.90;;
4424;SDS011;2225;53.568;13.266;2023-07-28T08:00:59;5.60;;;2.00;;
4424;SDS011;2225;53.568;13.266;2023-07-28T08:03:26;8.60;;;2.03;;
4424;SDS011;2225;53.568;13.266;2023-07-28T08:05:53;7.70;;;1.87;;
4424;SDS011;2225;53.568;13.266;2023-07-28T08:08:21;5.07;;;1.60;;
4424;SDS011;2225;53.568;13.266;2023-07-28T08:10:48;5.30;;;1.57;;
4424;SDS011;2225;53.568;13.266;2023-07-28T08:13:16;5.17;;;1.70;;
4424;SDS011;2225;53.568;13.266;2023-07-28T08:15:43;7.07;;;1.73;;
4424;SDS011;2225;53.568;13.266;2023-07-28T08:18:14;7.40;;;1.80;;
4424;SDS011;2225;53.568;13.266;2023-07-28T08:20:41;5.10;;;1.50;;
4424;SDS011;2225;53.568;13.266;2023-07-28T08:23:08;5.50;;;1.53;;
4424;SDS011;2225;53.568;13.266;2023-07-28T08:25:36;7.20;;;2.07;;
4424;SDS011;2225;53.568;13.266;2023-07-28T08:28:03;6.50;;;1.50;;
4424;SDS011;2225;53.568;13.266;2023-07-28T08:30:30;5.00;;;1.40;;
4424;SDS011;2225;53.568;13.266;2023-07-28T08:32:58;5.63;;;1.80;;
4424;SDS011;2225;53.568;13.266;2023-07-28T08:35:26;7.20;;;1.47;;
4424;SDS011;2225;53.568;13.266;2023-07-28T08:37:53;5.10;;;1.63;;
4424;SDS011;2225;53.568;13.266;2023-07-28T08:40:20;5.13;;;1.70;;
4424;SDS011;2225;53.568;13.266;2023-07-28T08:42:46;6.83;;;1.63;;
4424;SDS011;2225;53.568;13.266;2023-07-28T08:45:15;6.03;;;1.23;;
4424;SDS011;2225;53.568;13.266;2023-07-28T08:47:45;5.10;;;1.43;;
4424;SDS011;2225;53.568;13.266;2023-07-28T08:50:12;5.57;;;1.60;;
4424;SDS011;2225;53.568;13.266;2023-07-28T08:52:39;5.60;;;1.50;;
4424;SDS011;2225;53.568;13.266;2023-07-28T08:55:07;5.30;;;1.50;;
4424;SDS011;2225;53.568;13.266;2023-07-28T08:57:35;4.80;;;1.40;;
4424;SDS011;2225;53.568;13.266;2023-07-28T09:00:09;5.27;;;1.53;;
4424;SDS011;2225;53.568;13.266;2023-07-28T09:02:40;4.90;;;1.43;;
4424;SDS011;2225;53.568;13.266;2023-07-28T09:05:16;7.30;;;1.60;;
4424;SDS011;2225;53.568;13.266;2023-07-28T09:07:46;8.70;;;2.00;;
4424;SDS011;2225;53.568;13.266;2023-07-28T09:10:14;6.50;;;1.90;;
4424;SDS011;2225;53.568;13.266;2023-07-28T09:12:45;8.23;;;1.70;;
4424;SDS011;2225;53.568;13.266;2023-07-28T09:15:15;4.90;;;1.40;;
4424;SDS011;2225;53.568;13.266;2023-07-28T09:17:45;5.70;;;1.60;;
4424;SDS011;2225;53.568;13.266;2023-07-28T09:20:13;6.20;;;1.50;;
4424;SDS011;2225;53.568;13.266;2023-07-28T09:22:42;4.90;;;1.47;;
4424;SDS011;2225;53.568;13.266;2023-07-28T09:25:13;7.63;;;1.47;;
4424;SDS011;2225;53.568;13.266;2023-07-28T09:27:51;6.33;;;1.43;;
4424;SDS011;2225;53.568;13.266;2023-07-28T09:30:19;6.27;;;1.63;;
4424;SDS011;2225;53.568;13.266;2023-07-28T09:32:48;10.50;;;1.50;;
4424;SDS011;2225;53.568;13.266;2023-07-28T09:35:17;6.07;;;1.57;;
4424;SDS011;2225;53.568;13.266;2023-07-28T09:37:46;5.50;;;1.50;;
4424;SDS011;2225;53.568;13.266;2023-07-28T09:40:21;6.90;;;1.13;;
4424;SDS011;2225;53.568;13.266;2023-07-28T09:42:50;5.20;;;1.40;;
4424;SDS011;2225;53.568;13.266;2023-07-28T09:45:21;5.33;;;1.47;;
4424;SDS011;2225;53.568;13.266;2023-07-28T09:48:04;5.87;;;1.40;;
4424;SDS011;2225;53.568;13.266;2023-07-28T09:50:35;6.80;;;0.97;;
4424;SDS011;2225;53.568;13.266;2023-07-28T09:53:04;5.50;;;1.57;;
4424;SDS011;2225;53.568;13.266;2023-07-28T09:55:38;4.60;;;1.00;;
4424;SDS011;2225;53.568;13.266;2023-07-28T09:58:08;4.40;;;1.00;;
4424;SDS011;2225;53.568;13.266;2023-07-28T10:00:38;4.80;;;1.00;;
4424;SDS011;2225;53.568;13.266;2023-07-28T10:03:05;5.53;;;1.10;;
4424;SDS011;2225;53.568;13.266;2023-07-28T10:05:33;6.37;;;1.50;;
4424;SDS011;2225;53.568;13.266;2023-07-28T10:08:00;5.30;;;1.30;;
4424;SDS011;2225;53.568;13.266;2023-07-28T10:10:28;4.43;;;1.07;;
4424;SDS011;2225;53.568;13.266;2023-07-28T10:12:55;4.30;;;0.80;;
4424;SDS011;2225;53.568;13.266;2023-07-28T10:15:29;5.67;;;0.93;;
4424;SDS011;2225;53.568;13.266;2023-07-28T10:17:58;4.40;;;0.87;;
4424;SDS011;2225;53.568;13.266;2023-07-28T10:20:46;5.40;;;1.17;;
4424;SDS011;2225;53.568;13.266;2023-07-28T10:23:22;4.70;;;1.10;;
4424;SDS011;2225;53.568;13.266;2023-07-28T10:25:56;4.67;;;1.10;;
4424;SDS011;2225;53.568;13.266;2023-07-28T10:28:27;4.90;;;1.10;;
4424;SDS011;2225;53.568;13.266;2023-07-28T10:31:05;5.37;;;1.10;;
4424;SDS011;2225;53.568;13.266;2023-07-28T10:33:37;5.33;;;1.30;;
4424;SDS011;2225;53.568;13.266;2023-07-28T10:36:15;4.70;;;1.00;;
4424;SDS011;2225;53.568;13.266;2023-07-28T10:39:01;6.87;;;1.43;;
4424;SDS011;2225;53.568;13.266;2023-07-28T10:42:07;5.60;;;1.73;;
4424;SDS011;2225;53.568;13.266;2023-07-28T10:44:36;5.30;;;1.70;;
4424;SDS011;2225;53.568;13.266;2023-07-28T10:47:07;9.60;;;2.10;;
4424;SDS011;2225;53.568;13.266;2023-07-28T10:49:35;5.50;;;1.80;;
4424;SDS011;2225;53.568;13.266;2023-07-28T10:52:03;5.50;;;1.77;;
4424;SDS011;2225;53.568;13.266;2023-07-28T10:54:33;7.83;;;1.27;;
4424;SDS011;2225;53.568;13.266;2023-07-28T10:57:01;5.03;;;1.17;;
4424;SDS011;2225;53.568;13.266;2023-07-28T10:59:32;5.40;;;1.50;;
4424;SDS011;2225;53.568;13.266;2023-07-28T11:01:59;4.87;;;1.17;;
4424;SDS011;2225;53.568;13.266;2023-07-28T11:04:26;4.60;;;0.90;;
4424;SDS011;2225;53.568;13.266;2023-07-28T11:06:53;5.00;;;0.83;;
4424;SDS011;2225;53.568;13.266;2023-07-28T11:09:22;7.10;;;0.97;;
4424;SDS011;2225;53.568;13.266;2023-07-28T11:11:50;4.40;;;1.03;;
4424;SDS011;2225;53.568;13.266;2023-07-28T11:14:18;4.20;;;0.90;;
4424;SDS011;2225;53.568;13.266;2023-07-28T11:16:46;4.50;;;1.00;;
4424;SDS011;2225;53.568;13.266;2023-07-28T11:19:14;5.93;;;1.40;;
4424;SDS011;2225;53.568;13.266;2023-07-28T11:21:44;4.63;;;0.90;;
4424;SDS011;2225;53.568;13.266;2023-07-28T11:24:19;5.33;;;1.10;;
4424;SDS011;2225;53.568;13.266;2023-07-28T11:26:47;4.47;;;0.90;;
4424;SDS011;2225;53.568;13.266;2023-07-28T11:29:16;4.57;;;1.03;;
4424;SDS011;2225;53.568;13.266;2023-07-28T11:31:45;4.67;;;0.83;;
4424;SDS011;2225;53.568;13.266;2023-07-28T11:34:18;4.30;;;0.80;;
4424;SDS011;2225;53.568;13.266;2023-07-28T11:36:45;4.90;;;1.10;;
4424;SDS011;2225;53.568;13.266;2023-07-28T11:39:12;4.43;;;0.90;;
4424;SDS011;2225;53.568;13.266;2023-07-28T11:41:40;4.37;;;0.97;;
4424;SDS011;2225;53.568;13.266;2023-07-28T11:44:09;4.00;;;0.80;;
4424;SDS011;2225;53.568;13.266;2023-07-28T11:46:38;4.00;;;0.90;;
4424;SDS011;2225;53.568;13.266;2023-07-28T11:51:42;4.20;;;1.00;;
4424;SDS011;2225;53.568;13.266;2023-07-28T11:54:12;6.93;;;1.00;;
4424;SDS011;2225;53.568;13.266;2023-07-28T11:56:45;5.37;;;1.13;;
4424;SDS011;2225;53.568;13.266;2023-07-28T11:59:16;4.70;;;1.10;;
4424;SDS011;2225;53.568;13.266;2023-07-28T12:04:29;6.67;;;0.87;;
4424;SDS011;2225;53.568;13.266;2023-07-28T12:12:13;4.40;;;1.00;;
4424;SDS011;2225;53.568;13.266;2023-07-28T12:14:43;4.13;;;0.90;;
4424;SDS011;2225;53.568;13.266;2023-07-28T12:17:17;5.40;;;1.90;;
4424;SDS011;2225;53.568;13.266;2023-07-28T12:19:58;4.23;;;1.00;;
4424;SDS011;2225;53.568;13.266;2023-07-28T12:22:26;5.00;;;1.17;;
4424;SDS011;2225;53.568;13.266;2023-07-28T12:24:54;4.27;;;1.00;;
4424;SDS011;2225;53.568;13.266;2023-07-28T12:27:21;5.43;;;1.43;;
4424;SDS011;2225;53.568;13.266;2023-07-28T12:29:58;4.57;;;1.10;;
4424;SDS011;2225;53.568;13.266;2023-07-28T12:32:29;4.80;;;1.20;;
4424;SDS011;2225;53.568;13.266;2023-07-28T12:34:59;14.00;;;1.33;;
4424;SDS011;2225;53.568;13.266;2023-07-28T12:37:39;4.77;;;1.20;;
4424;SDS011;2225;53.568;13.266;2023-07-28T12:40:09;4.37;;;1.10;;
4424;SDS011;2225;53.568;13.266;2023-07-28T12:42:57;5.53;;;0.93;;
4424;SDS011;2225;53.568;13.266;2023-07-28T12:45:27;4.30;;;1.00;;
4424;SDS011;2225;53.568;13.266;2023-07-28T12:48:14;5.37;;;1.40;;
4424;SDS011;2225;53.568;13.266;2023-07-28T12:50:44;4.43;;;1.20;;
4424;SDS011;2225;53.568;13.266;2023-07-28T12:53:13;4.67;;;0.90;;
4424;SDS011;2225;53.568;13.266;2023-07-28T12:55:45;4.60;;;1.20;;
4424;SDS011;2225;53.568;13.266;2023-07-28T12:58:15;4.40;;;1.10;;
4424;SDS011;2225;53.568;13.266;2023-07-28T13:00:44;4.20;;;1.00;;
4424;SDS011;2225;53.568;13.266;2023-07-28T13:03:14;9.63;;;1.20;;
4424;SDS011;2225;53.568;13.266;2023-07-28T13:05:42;4.20;;;0.90;;
4424;SDS011;2225;53.568;13.266;2023-07-28T13:08:10;4.53;;;1.30;;
4424;SDS011;2225;53.568;13.266;2023-07-28T13:10:37;4.17;;;1.03;;
4424;SDS011;2225;53.568;13.266;2023-07-28T13:13:07;4.87;;;1.07;;
4424;SDS011;2225;53.568;13.266;2023-07-28T13:15:37;4.47;;;1.23;;
4424;SDS011;2225;53.568;13.266;2023-07-28T13:18:04;4.30;;;1.10;;
4424;SDS011;2225;53.568;13.266;2023-07-28T13:20:31;4.63;;;1.30;;
4424;SDS011;2225;53.568;13.266;2023-07-28T13:22:58;4.40;;;1.07;;
4424;SDS011;2225;53.568;13.266;2023-07-28T13:25:25;4.70;;;1.20;;
4424;SDS011;2225;53.568;13.266;2023-07-28T13:27:52;4.23;;;0.90;;
4424;SDS011;2225;53.568;13.266;2023-07-28T13:30:19;4.20;;;1.03;;
4424;SDS011;2225;53.568;13.266;2023-07-28T13:32:46;4.60;;;1.27;;
4424;SDS011;2225;53.568;13.266;2023-07-28T13:35:14;4.30;;;1.13;;
4424;SDS011;2225;53.568;13.266;2023-07-28T13:37:41;4.30;;;1.00;;
4424;SDS011;2225;53.568;13.266;2023-07-28T13:40:08;4.10;;;0.97;;
4424;SDS011;2225;53.568;13.266;2023-07-28T13:42:38;4.50;;;1.10;;
4424;SDS011;2225;53.568;13.266;2023-07-28T13:45:06;4.50;;;1.30;;
4424;SDS011;2225;53.568;13.266;2023-07-28T13:47:35;4.20;;;0.97;;
4424;SDS011;2225;53.568;13.266;2023-07-28T13:50:02;4.50;;;1.10;;
4424;SDS011;2225;53.568;13.266;2023-07-28T13:52:29;5.20;;;1.50;;
4424;SDS011;2225;53.568;13.266;2023-07-28T13:54:57;4.67;;;1.20;;
4424;SDS011;2225;53.568;13.266;2023-07-28T13:57:26;4.90;;;1.17;;
4424;SDS011;2225;53.568;13.266;2023-07-28T13:59:53;4.80;;;1.00;;
4424;SDS011;2225;53.568;13.266;2023-07-28T14:02:20;4.77;;;1.17;;
4424;SDS011;2225;53.568;13.266;2023-07-28T14:04:48;5.73;;;1.40;;
4424;SDS011;2225;53.568;13.266;2023-07-28T14:07:15;4.30;;;1.00;;
4424;SDS011;2225;53.568;13.266;2023-07-28T14:09:42;4.90;;;1.23;;
4424;SDS011;2225;53.568;13.266;2023-07-28T14:12:11;6.23;;;1.50;;
4424;SDS011;2225;53.568;13.266;2023-07-28T14:14:38;4.70;;;1.23;;
4424;SDS011;2225;53.568;13.266;2023-07-28T14:17:05;4.90;;;1.10;;
4424;SDS011;2225;53.568;13.266;2023-07-28T14:19:32;7.13;;;1.10;;
4424;SDS011;2225;53.568;13.266;2023-07-28T14:21:59;6.73;;;1.00;;
4424;SDS011;2225;53.568;13.266;2023-07-28T14:24:26;4.27;;;1.00;;
4424;SDS011;2225;53.568;13.266;2023-07-28T14:26:54;9.87;;;1.30;;
4424;SDS011;2225;53.568;13.266;2023-07-28T14:29:24;4.20;;;1.00;;
4424;SDS011;2225;53.568;13.266;2023-07-28T14:31:51;4.17;;;1.00;;
4424;SDS011;2225;53.568;13.266;2023-07-28T14:34:18;4.93;;;1.27;;
4424;SDS011;2225;53.568;13.266;2023-07-28T14:36:45;4.93;;;1.53;;
4424;SDS011;2225;53.568;13.266;2023-07-28T14:39:12;4.60;;;1.40;;
4424;SDS011;2225;53.568;13.266;2023-07-28T14:41:39;4.70;;;1.30;;
4424;SDS011;2225;53.568;13.266;2023-07-28T14:44:06;4.20;;;0.97;;
4424;SDS011;2225;53.568;13.266;2023-07-28T14:46:33;4.30;;;1.10;;
4424;SDS011;2225;53.568;13.266;2023-07-28T14:49:00;7.13;;;1.53;;
4424;SDS011;2225;53.568;13.266;2023-07-28T14:51:28;5.03;;;1.67;;
4424;SDS011;2225;53.568;13.266;2023-07-28T14:53:55;4.47;;;1.20;;
4424;SDS011;2225;53.568;13.266;2023-07-28T14:56:21;4.40;;;1.00;;
4424;SDS011;2225;53.568;13.266;2023-07-28T14:58:51;15.53;;;2.57;;
4424;SDS011;2225;53.568;13.266;2023-07-28T15:01:18;4.93;;;1.10;;
4424;SDS011;2225;53.568;13.266;2023-07-28T15:03:45;4.50;;;1.30;;
4424;SDS011;2225;53.568;13.266;2023-07-28T15:06:12;4.40;;;1.23;;
4424;SDS011;2225;53.568;13.266;2023-07-28T15:08:39;4.30;;;1.13;;
4424;SDS011;2225;53.568;13.266;2023-07-28T15:11:08;7.33;;;1.30;;
4424;SDS011;2225;53.568;13.266;2023-07-28T15:13:35;9.50;;;1.30;;
4424;SDS011;2225;53.568;13.266;2023-07-28T15:16:02;5.50;;;1.40;;
4424;SDS011;2225;53.568;13.266;2023-07-28T15:18:29;5.80;;;1.70;;
4424;SDS011;2225;53.568;13.266;2023-07-28T15:20:56;5.30;;;1.60;;